createdAt,value
2023-01-29T00:02:31.868Z,-3.25
2023-01-29T00:07:35.064Z,-3.30
2023-01-29T00:12:38.404Z,-3.29
2023-01-29T00:17:43.278Z,-3.28
2023-01-29T00:22:46.487Z,-3.31
2023-01-29T00:27:50.394Z,-3.34
2023-01-29T00:32:55.166Z,-3.30
2023-01-29T00:37:58.850Z,-3.30
2023-01-29T00:43:19.475Z,-3.31
2023-01-29T00:48:24.337Z,-3.31
2023-01-29T00:53:27.654Z,-3.31
2023-01-29T00:58:34.464Z,-3.32
2023-01-29T01:03:42.276Z,-3.31
2023-01-29T01:09:02.763Z,-3.29
2023-01-29T01:14:06.207Z,-3.25
2023-01-29T01:19:11.633Z,-3.21
2023-01-29T01:24:15.140Z,-3.31
2023-01-29T01:29:18.343Z,-3.20
2023-01-29T01:34:23.368Z,-3.30
2023-01-29T01:39:27.005Z,-3.38
2023-01-29T01:44:57.116Z,-3.28
2023-01-29T01:50:08.955Z,-3.26
2023-01-29T01:55:15.835Z,-3.30
2023-01-29T02:00:21.945Z,-3.31
2023-01-29T02:05:44.536Z,-3.26
2023-01-29T02:10:50.374Z,-3.42
2023-01-29T02:15:53.941Z,-3.33
2023-01-29T02:21:16.604Z,-3.33
2023-01-29T02:26:51.737Z,-3.34
2023-01-29T02:32:09.932Z,-2.86
2023-01-29T02:37:15.022Z,-2.76
2023-01-29T02:42:27.369Z,-2.74
2023-01-29T02:47:37.662Z,-2.83
2023-01-29T02:52:51.018Z,-2.92
2023-01-29T02:57:59.262Z,-3.01
2023-01-29T03:03:08.653Z,-3.12
2023-01-29T03:08:17.768Z,-3.17
2023-01-29T03:13:27.795Z,-3.21
2023-01-29T03:18:40.750Z,-3.27
2023-01-29T03:24:01.358Z,-3.32
2023-01-29T03:29:23.555Z,-3.35
2023-01-29T03:34:34.856Z,-3.38
2023-01-29T03:39:38.481Z,-3.40
2023-01-29T03:44:52.088Z,-3.40
2023-01-29T03:50:01.331Z,-3.52
2023-01-29T03:55:11.865Z,-3.40
2023-01-29T04:00:19.820Z,-3.48
2023-01-29T04:05:29.412Z,-3.55
2023-01-29T04:10:37.644Z,-3.58
2023-01-29T04:15:45.377Z,-3.64
2023-01-29T04:20:50.689Z,-3.54
2023-01-29T04:26:09.316Z,-3.56
2023-01-29T04:31:14.374Z,-3.63
2023-01-29T04:36:29.883Z,-3.58
2023-01-29T04:41:37.841Z,-3.61
2023-01-29T04:46:50.325Z,-3.63
2023-01-29T04:52:03.355Z,-3.66
2023-01-29T04:57:11.133Z,-3.64
2023-01-29T05:02:15.099Z,-3.63
2023-01-29T05:07:22.089Z,-3.64
2023-01-29T05:12:30.292Z,-3.65
2023-01-29T05:17:33.780Z,-3.65
2023-01-29T05:22:41.115Z,-3.77
2023-01-29T05:28:02.032Z,-3.71
2023-01-29T05:33:06.702Z,-3.77
2023-01-29T05:38:12.113Z,-3.88
2023-01-29T05:43:20.352Z,-4.04
2023-01-29T05:48:24.257Z,-4.19
2023-01-29T05:53:30.368Z,-4.25
2023-01-29T05:58:34.639Z,-4.30
2023-01-29T06:03:38.014Z,-4.31
2023-01-29T06:08:42.913Z,-4.31
2023-01-29T06:13:47.967Z,-4.27
2023-01-29T06:18:51.206Z,-4.22
2023-01-29T06:23:55.944Z,-4.20
2023-01-29T06:28:59.193Z,-4.17
2023-01-29T06:34:02.591Z,-4.15
2023-01-29T06:39:07.346Z,-4.16
2023-01-29T06:44:12.514Z,-4.14
2023-01-29T06:49:15.877Z,-4.15
2023-01-29T06:54:20.588Z,-4.16
2023-01-29T06:59:23.862Z,-4.17
2023-01-29T07:04:27.301Z,-4.14
2023-01-29T07:09:32.526Z,-4.16
2023-01-29T07:14:35.957Z,-4.12
2023-01-29T07:19:39.331Z,-4.11
2023-01-29T07:24:44.009Z,-4.09
2023-01-29T07:29:47.275Z,-4.09
2023-01-29T07:34:50.706Z,-4.09
2023-01-29T07:39:55.802Z,-4.01
2023-01-29T07:44:59.197Z,-3.97
2023-01-29T07:50:02.659Z,-3.90
2023-01-29T07:55:08.919Z,-3.84
2023-01-29T08:00:14.901Z,-3.77
2023-01-29T08:05:18.599Z,-3.94
2023-01-29T08:10:23.773Z,-3.75
2023-01-29T08:15:27.325Z,-3.82
2023-01-29T08:20:30.837Z,-3.68
2023-01-29T08:25:36.168Z,-3.63
2023-01-29T08:30:39.557Z,-3.55
2023-01-29T08:36:19.128Z,-3.51
2023-01-29T08:41:40.539Z,-3.49
2023-01-29T08:46:44.018Z,-3.39
2023-01-29T08:51:47.344Z,-3.27
2023-01-29T08:56:52.733Z,-3.21
2023-01-29T09:02:08.420Z,-3.24
2023-01-29T09:07:26.535Z,-3.21
2023-01-29T09:13:10.082Z,-3.23
2023-01-29T09:18:28.598Z,-3.18
2023-01-29T09:23:46.214Z,-3.17
2023-01-29T09:28:50.978Z,-3.11
2023-01-29T09:33:54.329Z,-3.06
2023-01-29T09:38:58.838Z,-3.06
2023-01-29T09:44:23.507Z,-2.77
2023-01-29T09:49:41.825Z,-2.64
2023-01-29T09:55:05.699Z,-2.54
2023-01-29T10:00:22.096Z,-2.55
2023-01-29T10:05:53.146Z,-2.49
2023-01-29T10:11:07.295Z,-2.41
2023-01-29T10:16:34.026Z,-2.21
2023-01-29T10:21:55.288Z,-2.22
2023-01-29T10:27:00.099Z,-2.23
2023-01-29T10:32:12.376Z,-2.23
2023-01-29T10:37:39.763Z,-2.21
2023-01-29T10:43:01.026Z,-2.19
2023-01-29T10:48:56.766Z,-2.32
2023-01-29T10:54:31.339Z,-2.45
2023-01-29T11:00:10.079Z,-2.44
2023-01-29T11:05:23.303Z,-2.13
2023-01-29T11:10:27.132Z,-1.59
2023-01-29T11:15:33.907Z,-0.51
2023-01-29T11:20:38.813Z,0.50
2023-01-29T11:25:53.176Z,-0.47
2023-01-29T11:30:57.028Z,-1.14
2023-01-29T11:36:10.824Z,-1.50
2023-01-29T11:41:18.743Z,-1.88
2023-01-29T11:46:22.270Z,-2.03
2023-01-29T11:51:30.104Z,-2.11
2023-01-29T11:56:42.319Z,-2.19
2023-01-29T12:01:45.626Z,-2.28
2023-01-29T12:06:53.297Z,-2.36
2023-01-29T12:11:56.954Z,-2.46
2023-01-29T12:17:05.507Z,-2.53
2023-01-29T12:22:16.657Z,-2.66
2023-01-29T12:27:26.823Z,-2.76
2023-01-29T12:32:39.871Z,-2.87
2023-01-29T12:37:55.753Z,-2.86
2023-01-29T12:43:06.202Z,-2.90
2023-01-29T12:48:12.327Z,-2.88
2023-01-29T12:53:28.071Z,-2.93
2023-01-29T12:58:36.888Z,-3.04
2023-01-29T13:03:50.999Z,-3.06
2023-01-29T13:09:00.156Z,-3.14
2023-01-29T13:14:14.226Z,-3.12
2023-01-29T13:19:27.117Z,-3.16
2023-01-29T13:24:38.530Z,-3.18
2023-01-29T13:29:44.950Z,-3.24
2023-01-29T13:34:50.695Z,-3.28
2023-01-29T13:39:57.132Z,-3.31
2023-01-29T13:45:04.128Z,-3.34
2023-01-29T13:50:10.482Z,-3.37
2023-01-29T13:55:26.431Z,-3.43
2023-01-29T14:01:01.375Z,-3.42
2023-01-29T14:06:06.290Z,-3.44
2023-01-29T14:11:37.335Z,-3.46
2023-01-29T14:16:41.492Z,-3.46
2023-01-29T14:21:51.604Z,-3.47
2023-01-29T14:26:57.486Z,-3.52
2023-01-29T14:32:10.007Z,-3.53
2023-01-29T14:37:22.496Z,-3.56
2023-01-29T14:42:31.130Z,-3.56
2023-01-29T14:47:55.396Z,-3.60
2023-01-29T14:53:04.854Z,-3.61
2023-01-29T14:58:15.800Z,-3.63
2023-01-29T15:03:24.032Z,-3.63
2023-01-29T15:08:34.135Z,-3.66
2023-01-29T15:13:43.909Z,-3.72
2023-01-29T15:18:50.030Z,-3.69
2023-01-29T15:24:06.184Z,-3.71
2023-01-29T15:29:26.170Z,-3.78
2023-01-29T15:34:29.669Z,-3.83
2023-01-29T15:39:33.895Z,-3.85
2023-01-29T15:44:45.601Z,-3.88
2023-01-29T15:49:49.363Z,-3.97
2023-01-29T15:54:53.516Z,-4.04
2023-01-29T16:00:00.208Z,-4.01
2023-01-29T16:05:05.159Z,-3.99
2023-01-29T16:10:16.055Z,-3.92
2023-01-29T16:15:32.448Z,-3.93
2023-01-29T16:20:42.764Z,-3.93
2023-01-29T16:25:46.545Z,-3.91
2023-01-29T16:30:58.524Z,-3.88
2023-01-29T16:36:05.732Z,-3.89
2023-01-29T16:41:16.864Z,-3.88
2023-01-29T16:46:26.458Z,-3.95
2023-01-29T16:51:32.264Z,-3.88
2023-01-29T16:56:36.613Z,-3.87
2023-01-29T17:01:42.789Z,-3.89
2023-01-29T17:06:49.451Z,-3.92
2023-01-29T17:11:57.387Z,-3.90
2023-01-29T17:17:07.059Z,-3.88
2023-01-29T17:22:14.863Z,-3.91
2023-01-29T17:27:21.079Z,-4.01
2023-01-29T17:32:42.957Z,-4.29
2023-01-29T17:37:48.197Z,-4.27
2023-01-29T17:42:51.369Z,-4.27
2023-01-29T17:47:56.382Z,-4.24
2023-01-29T17:52:59.847Z,-4.20
2023-01-29T17:58:03.356Z,-4.18
2023-01-29T18:03:08.773Z,-4.18
2023-01-29T18:08:17.873Z,-4.17
2023-01-29T18:13:21.352Z,-4.17
2023-01-29T18:18:26.347Z,-4.16
2023-01-29T18:23:31.379Z,-4.14
2023-01-29T18:28:35.020Z,-4.15
2023-01-29T18:33:39.755Z,-4.06
2023-01-29T18:38:43.275Z,-4.04
2023-01-29T18:43:46.723Z,-4.02
2023-01-29T18:48:51.597Z,-4.01
2023-01-29T18:53:55.164Z,-4.00
2023-01-29T18:58:58.481Z,-3.98
2023-01-29T19:04:03.938Z,-3.98
2023-01-29T19:09:07.300Z,-3.95
2023-01-29T19:14:10.773Z,-3.94
2023-01-29T19:19:15.611Z,-3.95
2023-01-29T19:24:19.018Z,-3.94
2023-01-29T19:29:22.851Z,-3.93
2023-01-29T19:34:28.073Z,-3.92
2023-01-29T19:39:33.898Z,-3.93
2023-01-29T19:44:39.132Z,-3.90
2023-01-29T19:49:44.280Z,-3.91
2023-01-29T19:54:48.152Z,-3.91
2023-01-29T19:59:51.967Z,-3.88
2023-01-29T20:04:57.597Z,-3.89
2023-01-29T20:10:01.028Z,-3.90
2023-01-29T20:15:04.861Z,-3.91
2023-01-29T20:20:11.178Z,-3.91
2023-01-29T20:25:14.726Z,-3.93
2023-01-29T20:30:18.683Z,-3.93
2023-01-29T20:35:23.622Z,-3.93
2023-01-29T20:40:27.405Z,-3.92
2023-01-29T20:45:33.134Z,-3.92
2023-01-29T20:50:37.955Z,-3.92
2023-01-29T20:55:41.384Z,-3.91
2023-01-29T21:00:46.563Z,-3.94
2023-01-29T21:05:51.869Z,-3.91
2023-01-29T21:10:55.385Z,-3.92
2023-01-29T21:15:58.984Z,-3.93
2023-01-29T21:21:03.932Z,-3.92
2023-01-29T21:26:08.033Z,-3.90
2023-01-29T21:31:14.545Z,-3.90
2023-01-29T21:36:19.252Z,-3.89
2023-01-29T21:41:43.982Z,-3.90
2023-01-29T21:46:47.420Z,-3.92
2023-01-29T21:51:52.424Z,-3.95
2023-01-29T21:56:55.685Z,-3.92
2023-01-29T22:01:59.089Z,-3.91
2023-01-29T22:07:03.810Z,-3.92
2023-01-29T22:12:08.959Z,-4.05
2023-01-29T22:17:12.423Z,-3.88
2023-01-29T22:22:18.659Z,-3.87
2023-01-29T22:27:22.181Z,-3.86
2023-01-29T22:32:25.549Z,-3.87
2023-01-29T22:37:30.449Z,-3.86
2023-01-29T22:42:33.762Z,-3.88
2023-01-29T22:47:37.288Z,-3.86
2023-01-29T22:52:43.462Z,-3.86
2023-01-29T22:57:50.028Z,-3.92
2023-01-29T23:02:53.864Z,-3.89
2023-01-29T23:07:58.700Z,-3.93
2023-01-29T23:13:02.099Z,-4.02
2023-01-29T23:18:06.653Z,-4.07
2023-01-29T23:23:11.648Z,-4.08
2023-01-29T23:28:15.567Z,-4.16
2023-01-29T23:33:18.913Z,-4.03
2023-01-29T23:38:23.774Z,-4.01
2023-01-29T23:43:27.482Z,-3.99
2023-01-29T23:48:30.999Z,-3.99
2023-01-29T23:53:35.683Z,-4.04
2023-01-29T23:58:39.244Z,-4.10
